Kenai Municipal Airport Kenai US
ICAO: PAEN
IATA:
Category: Medium
Scheduled Services:

Elevation: 99 ft
TransAlt. 18000 ft.

Airport Communications:
ATIS:120.3
ANCHORAGE CNTR:125.7
CTAF:121.3
RDO:122.65
GND:121.9
TWEB:117.6
TWR:121.3

PAEN Zoom In..

Runways:

(A) RW 01L length 7830 ft width 150 ft
---- / hdg 12

(B) RW 01R length 2000 ft width 60 ft
---- / hdg 12

(C) RW 19L length 2000 ft width 60 ft
---- / hdg 192

(D) RW 19R length 7830 ft width 150 ft
ILS 108.90 / hdg 192

Location; PAEN
Day. 14 / Time. 13.53 Zulu
* Altimeter: 29.67
* Temperature: 12° c. 53.6°f.
* Wind from: 190° Speed 19 kn with Gusts up to 26 kn.
Dewpoint: 09° c.
Visibility: 10 Statute Miles.
Clouds: Broken 12000 ft.

PAEN 141353Z 19019G26KT 10SM BKN120 12/09 A2967 RMK AO2 PK WND 19026/1340 SLP048 T01170089


Wind From 190°
Speed 19 kn.

 
 
jpsmedia.com for Web Design worldairports.se 2018   terms of use